sensor_id;sensor_type;location;lat;lon;timestamp;pressure;altitude;pressure_sealevel;temperature;humidity
34237;BME280;20501;45.956;13.632;2023-08-20T00:01:44;100887.38;;;23.43;82.78
34237;BME280;20501;45.956;13.632;2023-08-20T00:04:09;100889.69;;;23.53;82.30
34237;BME280;20501;45.956;13.632;2023-08-20T00:06:35;100889.44;;;23.61;81.96
34237;BME280;20501;45.956;13.632;2023-08-20T00:09:01;100889.44;;;23.61;81.90
34237;BME280;20501;45.956;13.632;2023-08-20T00:11:26;100888.41;;;23.56;82.21
34237;BME280;20501;45.956;13.632;2023-08-20T00:13:52;100879.72;;;23.52;82.22
34237;BME280;20501;45.956;13.632;2023-08-20T00:16:18;100878.66;;;23.53;82.26
34237;BME280;20501;45.956;13.632;2023-08-20T00:18:43;100888.41;;;23.56;82.09
34237;BME280;20501;45.956;13.632;2023-08-20T00:21:09;100887.53;;;23.55;81.91
34237;BME280;20501;45.956;13.632;2023-08-20T00:23:35;100886.84;;;23.21;83.35
34237;BME280;20501;45.956;13.632;2023-08-20T00:26:01;100890.41;;;23.28;83.46
34237;BME280;20501;45.956;13.632;2023-08-20T00:28:27;100886.63;;;23.02;84.76
34237;BME280;20501;45.956;13.632;2023-08-20T00:30:53;100885.53;;;23.17;84.17
34237;BME280;20501;45.956;13.632;2023-08-20T00:33:18;100888.06;;;23.32;83.19
34237;BME280;20501;45.956;13.632;2023-08-20T00:35:44;100878.53;;;23.28;83.42
34237;BME280;20501;45.956;13.632;2023-08-20T00:38:09;100881.72;;;23.18;83.81
34237;BME280;20501;45.956;13.632;2023-08-20T00:40:34;100875.03;;;22.87;85.52
34237;BME280;20501;45.956;13.632;2023-08-20T00:43:00;100878.59;;;23.21;83.79
34237;BME280;20501;45.956;13.632;2023-08-20T00:45:26;100874.13;;;23.20;83.96
34237;BME280;20501;45.956;13.632;2023-08-20T00:47:52;100865.22;;;23.11;84.50
34237;BME280;20501;45.956;13.632;2023-08-20T00:50:18;100870.50;;;23.26;83.63
34237;BME280;20501;45.956;13.632;2023-08-20T00:52:45;100872.59;;;23.31;82.86
34237;BME280;20501;45.956;13.632;2023-08-20T00:55:12;100866.13;;;22.85;85.18
34237;BME280;20501;45.956;13.632;2023-08-20T00:57:39;100880.31;;;22.75;85.91
34237;BME280;20501;45.956;13.632;2023-08-20T01:00:07;100882.00;;;23.03;84.84
34237;BME280;20501;45.956;13.632;2023-08-20T01:02:37;100878.97;;;23.18;83.53
34237;BME280;20501;45.956;13.632;2023-08-20T01:05:02;100884.53;;;22.98;84.29
34237;BME280;20501;45.956;13.632;2023-08-20T01:07:34;100887.28;;;23.04;83.69
34237;BME280;20501;45.956;13.632;2023-08-20T01:10:19;100892.16;;;23.02;83.82
34237;BME280;20501;45.956;13.632;2023-08-20T01:12:49;100899.75;;;23.07;83.23
34237;BME280;20501;45.956;13.632;2023-08-20T01:15:16;100898.06;;;23.06;83.44
34237;BME280;20501;45.956;13.632;2023-08-20T01:17:43;100902.97;;;23.04;83.06
34237;BME280;20501;45.956;13.632;2023-08-20T01:20:10;100897.47;;;23.04;83.66
34237;BME280;20501;45.956;13.632;2023-08-20T01:30:18;100901.66;;;23.27;82.43
34237;BME280;20501;45.956;13.632;2023-08-20T01:32:46;100899.31;;;23.17;82.49
34237;BME280;20501;45.956;13.632;2023-08-20T01:35:13;100903.78;;;23.11;82.72
34237;BME280;20501;45.956;13.632;2023-08-20T01:37:41;100904.66;;;22.98;83.51
34237;BME280;20501;45.956;13.632;2023-08-20T01:40:08;100911.22;;;23.04;83.47
34237;BME280;20501;45.956;13.632;2023-08-20T01:42:36;100904.47;;;22.86;84.20
34237;BME280;20501;45.956;13.632;2023-08-20T01:45:02;100903.78;;;23.18;83.08
34237;BME280;20501;45.956;13.632;2023-08-20T01:47:28;100904.84;;;23.17;82.82
34237;BME280;20501;45.956;13.632;2023-08-20T01:49:53;100910.34;;;23.24;82.11
34237;BME280;20501;45.956;13.632;2023-08-20T01:52:18;100903.16;;;23.23;81.64
34237;BME280;20501;45.956;13.632;2023-08-20T01:54:44;100906.09;;;23.28;81.55
34237;BME280;20501;45.956;13.632;2023-08-20T01:57:09;100904.84;;;23.17;82.12
34237;BME280;20501;45.956;13.632;2023-08-20T01:59:35;100899.56;;;23.15;82.04
34237;BME280;20501;45.956;13.632;2023-08-20T02:02:01;100893.59;;;23.18;81.83
34237;BME280;20501;45.956;13.632;2023-08-20T02:04:27;100895.53;;;23.25;81.88
34237;BME280;20501;45.956;13.632;2023-08-20T02:06:53;100888.13;;;23.05;82.31
34237;BME280;20501;45.956;13.632;2023-08-20T02:09:18;100890.25;;;23.03;82.76
34237;BME280;20501;45.956;13.632;2023-08-20T02:11:45;100885.16;;;23.00;82.66
34237;BME280;20501;45.956;13.632;2023-08-20T02:14:10;100884.09;;;23.08;82.12
34237;BME280;20501;45.956;13.632;2023-08-20T02:16:35;100889.63;;;23.01;82.85
34237;BME280;20501;45.956;13.632;2023-08-20T02:19:02;100895.53;;;23.11;82.55
34237;BME280;20501;45.956;13.632;2023-08-20T02:21:28;100887.44;;;23.16;82.36
34237;BME280;20501;45.956;13.632;2023-08-20T02:23:54;100874.34;;;23.05;82.43
34237;BME280;20501;45.956;13.632;2023-08-20T02:26:19;100878.38;;;23.02;82.78
34237;BME280;20501;45.956;13.632;2023-08-20T02:28:45;100886.22;;;22.99;82.86
34237;BME280;20501;45.956;13.632;2023-08-20T02:31:10;100880.72;;;22.99;82.92
34237;BME280;20501;45.956;13.632;2023-08-20T02:33:36;100877.78;;;22.87;83.61
34237;BME280;20501;45.956;13.632;2023-08-20T02:36:05;100884.78;;;22.83;83.66
34237;BME280;20501;45.956;13.632;2023-08-20T02:38:31;100887.28;;;23.04;83.24
34237;BME280;20501;45.956;13.632;2023-08-20T02:40:56;100890.91;;;22.78;83.98
34237;BME280;20501;45.956;13.632;2023-08-20T02:43:22;100885.41;;;22.85;84.05
34237;BME280;20501;45.956;13.632;2023-08-20T02:45:47;100878.81;;;22.99;82.60
34237;BME280;20501;45.956;13.632;2023-08-20T02:48:14;100886.84;;;23.08;82.43
34237;BME280;20501;45.956;13.632;2023-08-20T02:50:40;100887.25;;;23.11;82.48
34237;BME280;20501;45.956;13.632;2023-08-20T02:53:06;100890.25;;;22.96;82.48
34237;BME280;20501;45.956;13.632;2023-08-20T02:55:32;100889.44;;;22.82;83.11
34237;BME280;20501;45.956;13.632;2023-08-20T02:57:58;100894.09;;;22.88;83.32
34237;BME280;20501;45.956;13.632;2023-08-20T03:00:24;100889.38;;;23.02;82.91
34237;BME280;20501;45.956;13.632;2023-08-20T03:02:49;100884.72;;;23.10;82.13
34237;BME280;20501;45.956;13.632;2023-08-20T03:05:15;100887.09;;;22.93;82.91
34237;BME280;20501;45.956;13.632;2023-08-20T03:07:40;100892.41;;;22.74;83.84
34237;BME280;20501;45.956;13.632;2023-08-20T03:10:06;100887.28;;;22.91;83.64
34237;BME280;20501;45.956;13.632;2023-08-20T03:12:32;100894.31;;;22.80;84.11
34237;BME280;20501;45.956;13.632;2023-08-20T03:14:59;100882.41;;;23.00;82.23
34237;BME280;20501;45.956;13.632;2023-08-20T03:17:25;100882.41;;;23.07;81.77
34237;BME280;20501;45.956;13.632;2023-08-20T03:19:55;100890.00;;;23.18;80.61
34237;BME280;20501;45.956;13.632;2023-08-20T03:22:25;100885.34;;;23.25;80.09
34237;BME280;20501;45.956;13.632;2023-08-20T03:24:51;100885.97;;;23.21;80.45
34237;BME280;20501;45.956;13.632;2023-08-20T03:27:16;100883.66;;;23.11;80.86
34237;BME280;20501;45.956;13.632;2023-08-20T03:29:42;100895.50;;;23.18;80.49
34237;BME280;20501;45.956;13.632;2023-08-20T03:32:08;100881.31;;;23.14;80.53
34237;BME280;20501;45.956;13.632;2023-08-20T03:34:33;100886.59;;;23.16;80.71
34237;BME280;20501;45.956;13.632;2023-08-20T03:36:59;100892.53;;;23.26;80.32
34237;BME280;20501;45.956;13.632;2023-08-20T03:39:24;100889.19;;;23.11;80.99
34237;BME280;20501;45.956;13.632;2023-08-20T03:41:50;100889.78;;;23.06;81.19
34237;BME280;20501;45.956;13.632;2023-08-20T03:44:16;100896.59;;;23.03;81.86
34237;BME280;20501;45.956;13.632;2023-08-20T03:46:41;100898.06;;;23.13;81.54
34237;BME280;20501;45.956;13.632;2023-08-20T03:49:07;100905.09;;;22.95;82.11
34237;BME280;20501;45.956;13.632;2023-08-20T03:51:32;100908.50;;;22.97;82.02
34237;BME280;20501;45.956;13.632;2023-08-20T03:53:57;100909.53;;;22.96;82.45
34237;BME280;20501;45.956;13.632;2023-08-20T03:56:23;100896.41;;;22.98;80.75
34237;BME280;20501;45.956;13.632;2023-08-20T03:58:48;100900.38;;;23.29;79.16
34237;BME280;20501;45.956;13.632;2023-08-20T04:01:14;100900.63;;;23.21;80.78
34237;BME280;20501;45.956;13.632;2023-08-20T04:03:39;100898.06;;;23.06;80.67
34237;BME280;20501;45.956;13.632;2023-08-20T04:06:04;100894.31;;;22.87;82.12
34237;BME280;20501;45.956;13.632;2023-08-20T04:08:30;100893.69;;;22.71;83.18
34237;BME280;20501;45.956;13.632;2023-08-20T04:10:55;100889.88;;;22.79;82.98
34237;BME280;20501;45.956;13.632;2023-08-20T04:13:21;100888.59;;;22.68;83.32
34237;BME280;20501;45.956;13.632;2023-08-20T04:15:46;100888.41;;;22.77;82.70
34237;BME280;20501;45.956;13.632;2023-08-20T04:18:12;100885.66;;;22.56;83.58
34237;BME280;20501;45.956;13.632;2023-08-20T04:20:37;100889.22;;;22.77;83.04
34237;BME280;20501;45.956;13.632;2023-08-20T04:23:03;100890.91;;;22.85;82.42
34237;BME280;20501;45.956;13.632;2023-08-20T04:25:29;100893.03;;;22.76;83.53
34237;BME280;20501;45.956;13.632;2023-08-20T04:27:54;100898.31;;;22.91;82.71
34237;BME280;20501;45.956;13.632;2023-08-20T04:30:19;100892.38;;;22.94;82.18
34237;BME280;20501;45.956;13.632;2023-08-20T04:32:45;100891.78;;;22.72;83.12
34237;BME280;20501;45.956;13.632;2023-08-20T04:35:10;100891.97;;;22.57;84.06
34237;BME280;20501;45.956;13.632;2023-08-20T04:37:36;100890.94;;;22.71;83.45
34237;BME280;20501;45.956;13.632;2023-08-20T04:40:02;100894.72;;;22.70;83.38
34237;BME280;20501;45.956;13.632;2023-08-20T04:42:30;100898.13;;;22.72;82.88
34237;BME280;20501;45.956;13.632;2023-08-20T04:44:56;100901.53;;;22.81;82.72
34237;BME280;20501;45.956;13.632;2023-08-20T04:47:21;100899.81;;;22.67;83.37
34237;BME280;20501;45.956;13.632;2023-08-20T04:49:47;100895.59;;;22.51;84.12
34237;BME280;20501;45.956;13.632;2023-08-20T04:52:12;100897.06;;;22.60;83.82
34237;BME280;20501;45.956;13.632;2023-08-20T04:54:37;100898.13;;;22.66;83.32
34237;BME280;20501;45.956;13.632;2023-08-20T04:57:03;100904.47;;;22.80;83.52
34237;BME280;20501;45.956;13.632;2023-08-20T04:59:28;100903.00;;;22.84;82.43
34237;BME280;20501;45.956;13.632;2023-08-20T05:01:54;100902.16;;;22.70;83.16
34237;BME280;20501;45.956;13.632;2023-08-20T05:04:19;100899.00;;;22.73;83.11
34237;BME280;20501;45.956;13.632;2023-08-20T05:06:45;100896.84;;;22.68;83.63
34237;BME280;20501;45.956;13.632;2023-08-20T05:09:14;100897.06;;;22.67;83.30
34237;BME280;20501;45.956;13.632;2023-08-20T05:11:40;100900.25;;;22.70;83.59
34237;BME280;20501;45.956;13.632;2023-08-20T05:14:06;100902.16;;;22.77;83.47
34237;BME280;20501;45.956;13.632;2023-08-20T05:16:31;100912.72;;;22.86;82.92
34237;BME280;20501;45.956;13.632;2023-08-20T05:18:57;100917.00;;;22.76;83.07
34237;BME280;20501;45.956;13.632;2023-08-20T05:21:22;100917.81;;;22.90;81.98
34237;BME280;20501;45.956;13.632;2023-08-20T05:23:47;100921.63;;;22.88;82.17
34237;BME280;20501;45.956;13.632;2023-08-20T05:26:13;100924.81;;;22.79;82.79
34237;BME280;20501;45.956;13.632;2023-08-20T05:28:38;100925.25;;;22.82;83.11
34237;BME280;20501;45.956;13.632;2023-08-20T05:31:04;100930.94;;;22.81;83.18
34237;BME280;20501;45.956;13.632;2023-08-20T05:33:29;100925.84;;;22.91;82.93
34237;BME280;20501;45.956;13.632;2023-08-20T05:35:55;100926.06;;;22.96;82.45
34237;BME280;20501;45.956;13.632;2023-08-20T05:38:20;100927.31;;;23.00;82.68
34237;BME280;20501;45.956;13.632;2023-08-20T05:40:45;100931.34;;;23.11;82.09
34237;BME280;20501;45.956;13.632;2023-08-20T05:43:11;100935.16;;;23.10;82.05
34237;BME280;20501;45.956;13.632;2023-08-20T05:45:36;100935.16;;;23.10;81.70
34237;BME280;20501;45.956;13.632;2023-08-20T05:48:02;100934.72;;;23.13;81.38
34237;BME280;20501;45.956;13.632;2023-08-20T05:50:27;100938.31;;;23.14;81.61
34237;BME280;20501;45.956;13.632;2023-08-20T05:52:53;100938.56;;;23.19;81.19
34237;BME280;20501;45.956;13.632;2023-08-20T05:55:18;100935.75;;;23.32;80.96
34237;BME280;20501;45.956;13.632;2023-08-20T05:57:44;100936.22;;;23.29;80.32
34237;BME280;20501;45.956;13.632;2023-08-20T06:00:10;100947.81;;;23.38;80.66
34237;BME280;20501;45.956;13.632;2023-08-20T06:02:37;100947.22;;;23.36;80.12
34237;BME280;20501;45.956;13.632;2023-08-20T06:05:03;100949.75;;;23.31;80.92
34237;BME280;20501;45.956;13.632;2023-08-20T06:07:32;100956.97;;;23.39;80.75
34237;BME280;20501;45.956;13.632;2023-08-20T06:09:57;100962.25;;;23.40;80.73
34237;BME280;20501;45.956;13.632;2023-08-20T06:12:23;100965.22;;;23.39;80.56
34237;BME280;20501;45.956;13.632;2023-08-20T06:14:49;100970.91;;;23.44;80.70
34237;BME280;20501;45.956;13.632;2023-08-20T06:17:15;100970.50;;;23.47;80.42
34237;BME280;20501;45.956;13.632;2023-08-20T06:19:40;100965.81;;;23.54;80.36
34237;BME280;20501;45.956;13.632;2023-08-20T06:22:05;100961.16;;;23.55;80.59
34237;BME280;20501;45.956;13.632;2023-08-20T06:24:31;100971.13;;;23.56;80.40
34237;BME280;20501;45.956;13.632;2023-08-20T06:26:56;100967.94;;;23.59;80.04
34237;BME280;20501;45.956;13.632;2023-08-20T06:29:22;100963.03;;;23.61;80.13
34237;BME280;20501;45.956;13.632;2023-08-20T06:31:48;100974.25;;;23.66;79.55
34237;BME280;20501;45.956;13.632;2023-08-20T06:34:14;100972.34;;;23.67;79.65
34237;BME280;20501;45.956;13.632;2023-08-20T06:36:39;100972.28;;;23.80;79.24
34237;BME280;20501;45.956;13.632;2023-08-20T06:39:05;100976.31;;;23.84;79.28
34237;BME280;20501;45.956;13.632;2023-08-20T06:41:30;100969.50;;;23.87;79.08
34237;BME280;20501;45.956;13.632;2023-08-20T06:43:56;100972.25;;;24.00;79.29
34237;BME280;20501;45.956;13.632;2023-08-20T06:46:21;100976.22;;;24.04;79.13
34237;BME280;20501;45.956;13.632;2023-08-20T06:48:47;100978.31;;;24.09;79.12
34237;BME280;20501;45.956;13.632;2023-08-20T06:51:15;100975.13;;;24.12;78.11
34237;BME280;20501;45.956;13.632;2023-08-20T06:53:44;100976.75;;;24.26;77.73
34237;BME280;20501;45.956;13.632;2023-08-20T06:56:10;100974.38;;;24.37;77.02
34237;BME280;20501;45.956;13.632;2023-08-20T06:58:37;100976.50;;;24.35;78.18
34237;BME280;20501;45.956;13.632;2023-08-20T07:01:03;100977.41;;;24.29;77.39
34237;BME280;20501;45.956;13.632;2023-08-20T07:03:38;100982.00;;;24.35;76.99
34237;BME280;20501;45.956;13.632;2023-08-20T07:06:04;100978.94;;;24.50;76.54
34237;BME280;20501;45.956;13.632;2023-08-20T07:08:30;100982.38;;;24.45;76.43
34237;BME280;20501;45.956;13.632;2023-08-20T07:10:55;100972.97;;;24.53;76.08
34237;BME280;20501;45.956;13.632;2023-08-20T07:13:22;100981.59;;;24.63;75.60
34237;BME280;20501;45.956;13.632;2023-08-20T07:15:47;100980.38;;;24.84;75.77
34237;BME280;20501;45.956;13.632;2023-08-20T07:18:13;100979.66;;;24.96;75.16
34237;BME280;20501;45.956;13.632;2023-08-20T07:20:40;100986.19;;;25.01;75.04
34237;BME280;20501;45.956;13.632;2023-08-20T07:23:05;100981.09;;;25.05;74.93
34237;BME280;20501;45.956;13.632;2023-08-20T07:25:31;100978.34;;;25.24;74.32
34237;BME280;20501;45.956;13.632;2023-08-20T07:27:56;100988.16;;;25.38;72.78
34237;BME280;20501;45.956;13.632;2023-08-20T07:30:25;100978.41;;;25.35;73.30
34237;BME280;20501;45.956;13.632;2023-08-20T07:32:50;100981.88;;;25.31;73.00
34237;BME280;20501;45.956;13.632;2023-08-20T07:35:16;100979.38;;;25.48;72.96
34237;BME280;20501;45.956;13.632;2023-08-20T07:37:41;100974.47;;;25.69;72.09
34237;BME280;20501;45.956;13.632;2023-08-20T07:40:07;100976.06;;;25.76;72.63
34237;BME280;20501;45.956;13.632;2023-08-20T07:42:33;100977.34;;;25.92;70.95
34237;BME280;20501;45.956;13.632;2023-08-20T07:44:58;100977.72;;;26.15;70.74
34237;BME280;20501;45.956;13.632;2023-08-20T07:47:23;100969.97;;;26.35;70.02
34237;BME280;20501;45.956;13.632;2023-08-20T07:49:49;100969.59;;;26.32;70.84
34237;BME280;20501;45.956;13.632;2023-08-20T07:52:14;100981.47;;;26.20;70.04
34237;BME280;20501;45.956;13.632;2023-08-20T07:54:40;100978.56;;;26.46;68.85
34237;BME280;20501;45.956;13.632;2023-08-20T07:57:05;100976.63;;;26.46;68.67
34237;BME280;20501;45.956;13.632;2023-08-20T07:59:31;100988.97;;;26.32;69.41
34237;BME280;20501;45.956;13.632;2023-08-20T08:01:56;100981.72;;;26.61;68.75
34237;BME280;20501;45.956;13.632;2023-08-20T08:04:21;100987.66;;;26.77;68.01
34237;BME280;20501;45.956;13.632;2023-08-20T08:06:47;100982.50;;;26.92;68.60
34237;BME280;20501;45.956;13.632;2023-08-20T08:09:19;100986.16;;;26.93;67.67
34237;BME280;20501;45.956;13.632;2023-08-20T08:11:45;100980.94;;;26.84;67.89
34237;BME280;20501;45.956;13.632;2023-08-20T08:14:10;100981.56;;;27.10;67.14
34237;BME280;20501;45.956;13.632;2023-08-20T08:16:37;100977.09;;;27.09;67.96
34237;BME280;20501;45.956;13.632;2023-08-20T08:19:02;100975.03;;;27.28;66.20
34237;BME280;20501;45.956;13.632;2023-08-20T08:21:28;100972.38;;;27.33;66.42
34237;BME280;20501;45.956;13.632;2023-08-20T08:23:53;100970.34;;;27.05;67.04
34237;BME280;20501;45.956;13.632;2023-08-20T08:26:18;100973.47;;;27.21;67.26
34237;BME280;20501;45.956;13.632;2023-08-20T08:28:44;100973.25;;;27.46;65.66
34237;BME280;20501;45.956;13.632;2023-08-20T08:31:09;100979.22;;;27.67;66.16
34237;BME280;20501;45.956;13.632;2023-08-20T08:33:35;100969.88;;;27.85;65.96
34237;BME280;20501;45.956;13.632;2023-08-20T08:36:00;100972.19;;;27.76;64.81
34237;BME280;20501;45.956;13.632;2023-08-20T08:38:26;100972.13;;;27.23;67.06
34237;BME280;20501;45.956;13.632;2023-08-20T08:40:51;100970.72;;;27.44;66.39
34237;BME280;20501;45.956;13.632;2023-08-20T08:43:18;100975.16;;;27.57;65.11
34237;BME280;20501;45.956;13.632;2023-08-20T08:45:47;100967.03;;;27.68;64.59
34237;BME280;20501;45.956;13.632;2023-08-20T08:48:16;100965.63;;;27.17;66.43
34237;BME280;20501;45.956;13.632;2023-08-20T08:50:43;100964.56;;;27.30;66.13
34237;BME280;20501;45.956;13.632;2023-08-20T08:53:11;100965.25;;;28.02;62.90
34237;BME280;20501;45.956;13.632;2023-08-20T08:55:38;100959.44;;;28.04;62.72
34237;BME280;20501;45.956;13.632;2023-08-20T08:58:03;100966.09;;;28.03;63.07
34237;BME280;20501;45.956;13.632;2023-08-20T09:00:29;100968.03;;;28.31;62.29
34237;BME280;20501;45.956;13.632;2023-08-20T09:02:56;100964.13;;;28.03;63.81
34237;BME280;20501;45.956;13.632;2023-08-20T09:05:21;100960.13;;;28.23;62.54
34237;BME280;20501;45.956;13.632;2023-08-20T09:07:47;100956.41;;;27.76;64.23
34237;BME280;20501;45.956;13.632;2023-08-20T09:10:32;100962.69;;;28.01;64.02
34237;BME280;20501;45.956;13.632;2023-08-20T09:12:58;100967.84;;;28.21;63.61
34237;BME280;20501;45.956;13.632;2023-08-20T09:15:31;100960.53;;;27.38;64.07
34237;BME280;20501;45.956;13.632;2023-08-20T09:17:57;100960.06;;;27.41;63.86
34237;BME280;20501;45.956;13.632;2023-08-20T09:20:34;100953.28;;;27.73;63.18
34237;BME280;20501;45.956;13.632;2023-08-20T09:22:59;100962.72;;;28.76;59.13
34237;BME280;20501;45.956;13.632;2023-08-20T09:25:25;100959.00;;;29.04;57.26
34237;BME280;20501;45.956;13.632;2023-08-20T09:27:50;100965.72;;;28.91;57.82
34237;BME280;20501;45.956;13.632;2023-08-20T09:30:18;100963.53;;;29.49;55.89
34237;BME280;20501;45.956;13.632;2023-08-20T09:32:45;100970.66;;;29.40;56.01
34237;BME280;20501;45.956;13.632;2023-08-20T09:35:18;100960.06;;;29.37;55.57
34237;BME280;20501;45.956;13.632;2023-08-20T09:37:44;100959.75;;;28.99;56.95
34237;BME280;20501;45.956;13.632;2023-08-20T09:40:09;100959.34;;;29.30;56.00
34237;BME280;20501;45.956;13.632;2023-08-20T09:42:35;100949.13;;;29.13;56.27
34237;BME280;20501;45.956;13.632;2023-08-20T09:45:02;100951.41;;;28.99;57.10
34237;BME280;20501;45.956;13.632;2023-08-20T09:47:33;100951.59;;;28.93;57.70
34237;BME280;20501;45.956;13.632;2023-08-20T09:50:01;100952.66;;;29.09;57.11
34237;BME280;20501;45.956;13.632;2023-08-20T09:52:40;100954.16;;;29.16;57.09
34237;BME280;20501;45.956;13.632;2023-08-20T09:55:17;100951.94;;;28.79;59.25
34237;BME280;20501;45.956;13.632;2023-08-20T09:57:47;100949.94;;;28.63;60.89
34237;BME280;20501;45.956;13.632;2023-08-20T10:00:13;100956.84;;;28.60;60.18
34237;BME280;20501;45.956;13.632;2023-08-20T10:02:39;100947.19;;;28.97;58.67
34237;BME280;20501;45.956;13.632;2023-08-20T10:05:06;100947.94;;;29.09;56.60
34237;BME280;20501;45.956;13.632;2023-08-20T10:07:31;100944.06;;;29.94;54.34
34237;BME280;20501;45.956;13.632;2023-08-20T10:09:58;100950.53;;;30.27;53.47
34237;BME280;20501;45.956;13.632;2023-08-20T10:12:26;100940.63;;;29.87;53.40
34237;BME280;20501;45.956;13.632;2023-08-20T10:14:53;100935.44;;;29.73;53.85
34237;BME280;20501;45.956;13.632;2023-08-20T10:17:18;100944.47;;;29.19;56.02
34237;BME280;20501;45.956;13.632;2023-08-20T10:19:44;100942.91;;;27.68;60.96
34237;BME280;20501;45.956;13.632;2023-08-20T10:22:09;100947.38;;;28.56;57.55
34237;BME280;20501;45.956;13.632;2023-08-20T10:25:04;100945.31;;;28.51;59.70
34237;BME280;20501;45.956;13.632;2023-08-20T10:27:32;100940.88;;;29.63;54.75
34237;BME280;20501;45.956;13.632;2023-08-20T10:30:00;100939.97;;;29.57;54.32
34237;BME280;20501;45.956;13.632;2023-08-20T10:35:47;100927.75;;;30.08;52.35
34237;BME280;20501;45.956;13.632;2023-08-20T10:38:14;100929.09;;;30.00;53.06
34237;BME280;20501;45.956;13.632;2023-08-20T10:40:51;100923.38;;;28.84;56.56
34237;BME280;20501;45.956;13.632;2023-08-20T10:43:47;100932.09;;;29.93;52.85
34237;BME280;20501;45.956;13.632;2023-08-20T10:46:23;100929.22;;;30.10;52.75
34237;BME280;20501;45.956;13.632;2023-08-20T10:48:54;100932.88;;;30.49;51.30
34237;BME280;20501;45.956;13.632;2023-08-20T10:51:31;100925.94;;;30.19;51.03
34237;BME280;20501;45.956;13.632;2023-08-20T10:56:43;100925.84;;;30.08;52.63
34237;BME280;20501;45.956;13.632;2023-08-20T10:59:14;100924.19;;;29.63;53.56
34237;BME280;20501;45.956;13.632;2023-08-20T11:01:40;100925.97;;;29.30;54.18
34237;BME280;20501;45.956;13.632;2023-08-20T11:04:08;100925.44;;;30.27;51.38
34237;BME280;20501;45.956;13.632;2023-08-20T11:06:34;100917.56;;;30.51;51.82
34237;BME280;20501;45.956;13.632;2023-08-20T11:09:00;100920.47;;;30.29;50.43
34237;BME280;20501;45.956;13.632;2023-08-20T11:11:26;100918.28;;;30.36;53.15
34237;BME280;20501;45.956;13.632;2023-08-20T11:13:51;100910.81;;;30.09;50.71
34237;BME280;20501;45.956;13.632;2023-08-20T11:16:17;100905.94;;;29.11;52.98
34237;BME280;20501;45.956;13.632;2023-08-20T11:18:43;100907.06;;;29.49;51.70
34237;BME280;20501;45.956;13.632;2023-08-20T11:21:08;100908.31;;;30.46;46.68
34237;BME280;20501;45.956;13.632;2023-08-20T11:23:35;100905.72;;;30.01;48.86
34237;BME280;20501;45.956;13.632;2023-08-20T11:26:01;100909.22;;;30.84;48.51
34237;BME280;20501;45.956;13.632;2023-08-20T11:28:28;100905.25;;;31.17;48.06
34237;BME280;20501;45.956;13.632;2023-08-20T11:30:54;100920.97;;;31.39;45.79
34237;BME280;20501;45.956;13.632;2023-08-20T11:33:21;100905.91;;;31.40;44.39
34237;BME280;20501;45.956;13.632;2023-08-20T11:35:47;100907.50;;;31.21;45.20
34237;BME280;20501;45.956;13.632;2023-08-20T11:38:13;100897.88;;;31.01;45.05
34237;BME280;20501;45.956;13.632;2023-08-20T11:40:38;100899.78;;;31.43;45.47
34237;BME280;20501;45.956;13.632;2023-08-20T11:43:04;100900.13;;;31.52;44.48
34237;BME280;20501;45.956;13.632;2023-08-20T11:45:30;100894.75;;;31.35;44.23
34237;BME280;20501;45.956;13.632;2023-08-20T11:47:57;100907.25;;;31.27;44.89
34237;BME280;20501;45.956;13.632;2023-08-20T11:50:23;100900.66;;;31.54;44.39
34237;BME280;20501;45.956;13.632;2023-08-20T11:52:49;100898.28;;;31.84;42.87
34237;BME280;20501;45.956;13.632;2023-08-20T11:55:22;100895.91;;;31.44;45.20
34237;BME280;20501;45.956;13.632;2023-08-20T11:57:52;100889.47;;;31.44;43.31
34237;BME280;20501;45.956;13.632;2023-08-20T12:00:27;100896.22;;;31.53;43.59
34237;BME280;20501;45.956;13.632;2023-08-20T12:02:54;100902.91;;;31.52;42.21
34237;BME280;20501;45.956;13.632;2023-08-20T12:05:29;100896.28;;;31.69;43.34
34237;BME280;20501;45.956;13.632;2023-08-20T12:07:56;100886.53;;;31.13;44.82
34237;BME280;20501;45.956;13.632;2023-08-20T12:10:23;100882.00;;;30.59;45.55
34237;BME280;20501;45.956;13.632;2023-08-20T12:12:49;100886.16;;;29.96;46.51
34237;BME280;20501;45.956;13.632;2023-08-20T12:15:15;100883.22;;;30.40;47.26
34237;BME280;20501;45.956;13.632;2023-08-20T12:17:40;100890.78;;;30.13;44.83
34237;BME280;20501;45.956;13.632;2023-08-20T12:20:06;100895.34;;;31.53;39.40
34237;BME280;20501;45.956;13.632;2023-08-20T12:22:38;100906.41;;;31.27;43.70
34237;BME280;20501;45.956;13.632;2023-08-20T12:25:05;100909.16;;;30.73;44.41
34237;BME280;20501;45.956;13.632;2023-08-20T12:27:30;100888.19;;;30.33;47.57
34237;BME280;20501;45.956;13.632;2023-08-20T12:29:55;100884.69;;;31.34;42.47
34237;BME280;20501;45.956;13.632;2023-08-20T12:32:21;100875.00;;;31.52;42.12
34237;BME280;20501;45.956;13.632;2023-08-20T12:34:46;100883.22;;;31.90;39.69
34237;BME280;20501;45.956;13.632;2023-08-20T12:37:11;100881.34;;;31.37;42.06
34237;BME280;20501;45.956;13.632;2023-08-20T12:39:37;100884.91;;;32.11;42.03
34237;BME280;20501;45.956;13.632;2023-08-20T12:42:02;100891.56;;;31.74;42.66
34237;BME280;20501;45.956;13.632;2023-08-20T12:44:28;100886.25;;;31.88;42.69
34237;BME280;20501;45.956;13.632;2023-08-20T12:46:53;100888.50;;;31.81;43.33
34237;BME280;20501;45.956;13.632;2023-08-20T12:49:19;100885.16;;;30.72;46.07
34237;BME280;20501;45.956;13.632;2023-08-20T12:51:44;100882.94;;;31.91;42.82